Time;durP1;ratioP1;P1;durP2;ratioP2;P2;SDS_P1;SDS_P2;PMS_P1;PMS_P2;Temp;Humidity;BMP_temperature;BMP_pressure;BME280_temperature;BME280_humidity;BME280_pressure;Samples;Min_cycle;Max_cycle;Signal;HPM_P1;HPM_P2
2021/10/02 00:01:43;;;;;;;29.95;13.83;;;;;;;2.43;89.98;100847.55;1640596;86;21094;-71
2021/10/02 00:36:37;;;;;;;27.15;12.33;;;;;;;2.12;90.44;100828.84;1725161;81;21067;-71
2021/10/02 00:41:57;;;;;;;25.30;12.98;;;;;;;2.07;90.60;100823.28;1729766;81;21093;-72
2021/10/02 00:47:04;;;;;;;27.05;12.45;;;;;;;2.01;90.62;100818.78;1727056;81;21062;-72
2021/10/02 00:49:31;;;;;;;27.73;13.60;;;;;;;1.99;90.61;100816.30;1732381;81;21568;-70
2021/10/02 00:51:59;;;;;;;24.30;12.90;;;;;;;1.97;90.73;100812.47;1728109;82;21012;-73
2021/10/02 00:54:25;;;;;;;22.20;12.60;;;;;;;1.96;90.78;100810.81;1751212;81;20916;-71
2021/10/02 00:56:52;;;;;;;24.30;12.73;;;;;;;1.94;90.89;100813.45;1726015;82;21010;-71
2021/10/02 00:59:19;;;;;;;22.90;12.25;;;;;;;1.93;91.00;100810.44;1747263;81;21684;-71
2021/10/02 01:01:56;;;;;;;31.02;13.28;;;;;;;1.91;91.04;100819.32;1743788;81;20849;-72
2021/10/02 01:04:58;;;;;;;23.15;13.03;;;;;;;1.90;91.03;100818.50;1747911;81;21806;-70
2021/10/02 01:08:07;;;;;;;26.05;12.93;;;;;;;1.87;90.99;100820.30;1729457;81;21034;-70
2021/10/02 01:10:44;;;;;;;23.73;12.40;;;;;;;1.84;91.18;100819.41;1729059;81;21014;-71
2021/10/02 01:13:28;;;;;;;28.38;13.00;;;;;;;1.83;91.43;100821.81;1716170;81;20904;-72
2021/10/02 01:16:17;;;;;;;24.27;12.58;;;;;;;1.81;91.45;100818.50;1722993;81;21081;-70
2021/10/02 01:19:21;;;;;;;23.25;12.90;;;;;;;1.80;91.36;100821.44;1734347;81;20963;-72
2021/10/02 01:22:12;;;;;;;26.73;12.60;;;;;;;1.78;91.43;100825.72;1734036;81;20991;-71
2021/10/02 01:25:07;;;;;;;24.32;12.88;;;;;;;1.75;91.56;100820.77;1730409;81;20943;-71
2021/10/02 01:28:03;;;;;;;28.50;12.40;;;;;;;1.73;91.48;100816.66;1738374;81;21074;-72
2021/10/02 01:36:20;;;;;;;27.52;13.38;;;;;;;1.68;91.74;100815.98;1723988;81;21762;-72
2021/10/02 01:47:15;;;;;;;34.48;14.83;;;;;;;1.63;91.85;100811.77;1737931;81;21146;-71
2021/10/02 01:49:54;;;;;;;37.60;16.60;;;;;;;1.60;91.85;100812.23;1728167;81;20939;-71
2021/10/02 01:52:33;;;;;;;35.40;15.88;;;;;;;1.58;91.87;100810.27;1753049;81;20921;-71
2021/10/02 01:55:00;;;;;;;39.08;16.35;;;;;;;1.56;91.93;100808.31;1716697;81;20999;-71
2021/10/02 01:57:31;;;;;;;44.63;18.15;;;;;;;1.54;92.01;100807.19;1703027;81;20962;-71
2021/10/02 02:00:04;;;;;;;39.53;17.32;;;;;;;1.54;92.05;100809.07;1736645;81;21132;-71
2021/10/02 02:02:33;;;;;;;45.23;17.65;;;;;;;1.52;92.01;100809.82;1740550;81;21101;-71
2021/10/02 02:05:00;;;;;;;40.05;16.77;;;;;;;1.50;91.99;100810.57;1736329;81;20978;-72
2021/10/02 02:07:26;;;;;;;39.18;18.23;;;;;;;1.47;92.15;100813.73;1721822;82;20879;-72
2021/10/02 02:09:54;;;;;;;41.10;17.70;;;;;;;1.46;92.18;100810.72;1708759;81;21435;-70
2021/10/02 02:12:22;;;;;;;37.10;17.45;;;;;;;1.44;92.13;100804.18;1737061;80;20998;-71
2021/10/02 02:14:50;;;;;;;38.08;17.02;;;;;;;1.43;92.17;100807.94;1738853;82;21559;-71
2021/10/02 02:17:20;;;;;;;46.18;19.02;;;;;;;1.42;92.24;100811.69;1725398;81;21114;-71
2021/10/02 02:19:49;;;;;;;41.37;17.40;;;;;;;1.41;92.20;100811.39;1717446;81;21066;-70
2021/10/02 02:22:16;;;;;;;43.92;18.50;;;;;;;1.39;92.25;100813.50;1704405;83;20896;-70
2021/10/02 02:24:43;;;;;;;43.58;18.55;;;;;;;1.37;92.18;100814.25;1703611;83;21156;-70
2021/10/02 02:27:11;;;;;;;40.67;18.05;;;;;;;1.35;92.32;100811.47;1700731;83;20883;-71
2021/10/02 02:29:38;;;;;;;40.48;19.00;;;;;;;1.33;92.36;100811.16;1707024;83;21024;-71
2021/10/02 02:32:06;;;;;;;44.98;19.87;;;;;;;1.32;92.35;100810.86;1706786;83;20931;-71
2021/10/02 02:34:34;;;;;;;46.13;20.45;;;;;;;1.31;92.42;100813.27;1697790;83;20927;-71
2021/10/02 02:37:01;;;;;;;48.60;20.60;;;;;;;1.30;92.61;100804.84;1701145;83;21944;-72
2021/10/02 02:39:28;;;;;;;48.28;21.30;;;;;;;1.30;92.69;100808.08;1706586;83;20932;-74
2021/10/02 02:41:55;;;;;;;50.78;21.33;;;;;;;1.28;92.62;100806.13;1703532;83;21581;-71
2021/10/02 02:44:21;;;;;;;54.33;21.95;;;;;;;1.26;92.67;100806.87;1685029;83;20940;-71
2021/10/02 02:46:56;;;;;;;58.08;23.50;;;;;;;1.26;92.72;100801.45;1704821;83;21501;-71
2021/10/02 02:49:38;;;;;;;53.65;22.67;;;;;;;1.25;92.80;100804.69;1704761;83;21101;-71
2021/10/02 02:52:11;;;;;;;60.30;22.00;;;;;;;1.24;92.89;100803.03;1701211;82;21438;-70
2021/10/02 02:54:55;;;;;;;54.03;22.22;;;;;;;1.22;92.86;100799.73;1705418;83;20998;-72
2021/10/02 02:57:23;;;;;;;55.57;23.70;;;;;;;1.20;92.87;100795.06;1703505;82;21058;-71
2021/10/02 03:00:03;;;;;;;50.65;22.45;;;;;;;1.19;92.87;100801.53;1712810;83;20995;-71
2021/10/02 03:02:32;;;;;;;59.65;24.32;;;;;;;1.18;92.89;100793.11;1733433;81;21166;-71
2021/10/02 03:05:00;;;;;;;54.70;23.52;;;;;;;1.17;93.01;100790.10;1675536;83;21576;-72
2021/10/02 03:07:27;;;;;;;58.10;23.83;;;;;;;1.17;93.16;100792.80;1693956;82;21007;-72
2021/10/02 03:09:55;;;;;;;59.90;24.65;;;;;;;1.17;93.25;100784.69;1690230;83;20895;-72
2021/10/02 03:12:40;;;;;;;54.83;23.12;;;;;;;1.16;93.31;100789.80;1651859;86;21024;-71
2021/10/02 03:15:10;;;;;;;55.30;23.92;;;;;;;1.16;93.33;100787.62;1679702;84;21179;-71
2021/10/02 03:17:40;;;;;;;51.90;22.65;;;;;;;1.16;93.46;100782.21;1688651;83;20994;-68
2021/10/02 03:20:11;;;;;;;55.12;23.70;;;;;;;1.15;93.50;100782.77;1692612;83;20995;-70
2021/10/02 03:22:38;;;;;;;52.30;22.98;;;;;;;1.16;93.60;100781.69;1689942;83;21069;-74
2021/10/02 03:25:07;;;;;;;50.78;22.32;;;;;;;1.18;93.72;100780.11;1701266;83;21416;-71
2021/10/02 03:27:33;;;;;;;48.05;21.42;;;;;;;1.17;93.66;100779.28;1688865;83;21849;-72
2021/10/02 03:30:00;;;;;;;58.42;22.58;;;;;;;1.18;93.82;100780.11;1704638;83;21031;-71
2021/10/02 03:32:26;;;;;;;47.75;21.25;;;;;;;1.17;94.14;100780.63;1702092;83;20901;-72
2021/10/02 03:34:53;;;;;;;49.60;21.17;;;;;;;1.17;94.05;100780.63;1687405;83;21435;-70
2021/10/02 03:37:20;;;;;;;47.65;21.45;;;;;;;1.15;93.94;100777.89;1704678;83;20952;-70
2021/10/02 03:39:47;;;;;;;43.52;20.32;;;;;;;1.14;93.93;100776.23;1674889;84;21106;-70
2021/10/02 03:42:20;;;;;;;45.78;20.37;;;;;;;1.13;93.94;100776.76;1670233;84;21123;-69
2021/10/02 03:44:48;;;;;;;53.45;21.33;;;;;;;1.10;93.87;100774.50;1675821;83;20948;-70
2021/10/02 03:47:16;;;;;;;45.65;19.62;;;;;;;1.08;93.92;100771.19;1667892;83;20982;-69
2021/10/02 03:49:44;;;;;;;46.63;20.75;;;;;;;1.09;93.99;100773.38;1677018;82;21475;-69
2021/10/02 03:52:12;;;;;;;44.38;21.00;;;;;;;1.07;93.98;100770.89;1724002;81;21826;-70
2021/10/02 03:54:41;;;;;;;47.90;22.05;;;;;;;1.06;94.10;100770.58;1692601;83;20987;-68
2021/10/02 03:57:08;;;;;;;45.25;20.50;;;;;;;1.06;94.09;100775.99;1705937;81;21173;-69
2021/10/02 03:59:34;;;;;;;44.55;21.27;;;;;;;1.04;93.98;100769.98;1743071;81;21099;-70
2021/10/02 04:02:01;;;;;;;47.20;21.33;;;;;;;1.03;93.97;100770.20;1720923;82;20899;-71
2021/10/02 04:04:28;;;;;;;53.73;23.30;;;;;;;1.03;94.11;100771.55;1712948;83;21054;-69
2021/10/02 04:06:54;;;;;;;48.13;22.27;;;;;;;1.04;94.49;100767.28;1716332;82;20894;-69
2021/10/02 04:09:21;;;;;;;52.67;22.90;;;;;;;1.06;94.56;100769.76;1720473;82;21505;-69
2021/10/02 04:11:48;;;;;;;50.88;22.73;;;;;;;1.06;94.60;100769.23;1725608;81;20947;-69
2021/10/02 04:14:15;;;;;;;49.73;21.40;;;;;;;1.08;94.63;100769.84;1742258;81;20950;-69
2021/10/02 04:16:43;;;;;;;47.60;22.10;;;;;;;1.10;94.72;100770.97;1742216;82;20967;-69
2021/10/02 04:19:11;;;;;;;45.58;19.45;;;;;;;1.11;94.81;100772.09;1734852;81;21020;-70
2021/10/02 04:21:38;;;;;;;45.58;21.70;;;;;;;1.13;94.80;100779.46;1728031;81;21507;-71
2021/10/02 04:24:06;;;;;;;43.33;21.05;;;;;;;1.14;94.86;100777.06;1740195;82;21621;-71
2021/10/02 04:26:33;;;;;;;45.48;20.90;;;;;;;1.17;94.99;100776.58;1731494;81;20854;-71
2021/10/02 04:29:02;;;;;;;45.50;21.82;;;;;;;1.20;95.02;100779.36;1735082;81;21122;-72
2021/10/02 04:31:28;;;;;;;52.62;21.55;;;;;;;1.23;95.04;100781.62;1709212;82;20996;-72
2021/10/02 04:33:54;;;;;;;46.85;21.60;;;;;;;1.25;95.09;100780.87;1736913;82;21002;-73
2021/10/02 04:36:21;;;;;;;46.65;22.42;;;;;;;1.28;95.21;100775.84;1702907;82;20943;-72
2021/10/02 04:38:49;;;;;;;48.48;22.52;;;;;;;1.32;95.32;100778.39;1731608;82;20854;-72
2021/10/02 04:41:16;;;;;;;57.73;23.30;;;;;;;1.37;95.42;100776.89;1741773;82;21109;-71
2021/10/02 04:43:44;;;;;;;56.73;23.60;;;;;;;1.41;95.61;100774.86;1731282;82;21437;-72
2021/10/02 04:46:16;;;;;;;53.15;22.45;;;;;;;1.47;95.82;100777.20;1724815;81;20878;-71
2021/10/02 04:48:43;;;;;;;47.08;23.35;;;;;;;1.52;95.96;100778.70;1726075;81;21001;-71
2021/10/02 04:51:11;;;;;;;53.92;23.15;;;;;;;1.60;96.04;100777.04;1749103;81;20937;-71
2021/10/02 04:53:37;;;;;;;52.45;24.35;;;;;;;1.66;96.19;100776.13;1742311;81;21118;-72
2021/10/02 04:56:08;;;;;;;53.33;22.55;;;;;;;1.74;96.43;100775.80;1718152;82;20903;-71
2021/10/02 04:58:36;;;;;;;46.55;22.02;;;;;;;1.82;96.57;100771.42;1730188;82;20917;-71
2021/10/02 05:01:04;;;;;;;49.75;21.23;;;;;;;1.92;96.84;100779.83;1716221;82;21083;-73
2021/10/02 05:03:31;;;;;;;46.23;22.07;;;;;;;2.04;97.13;100782.59;1713870;82;21490;-70
2021/10/02 05:05:58;;;;;;;43.92;20.35;;;;;;;2.17;97.37;100786.99;1730074;82;21491;-70
2021/10/02 05:08:26;;;;;;;42.88;21.48;;;;;;;2.28;97.57;100783.50;1724363;81;20842;-70
2021/10/02 05:10:54;;;;;;;42.62;21.12;;;;;;;2.41;97.71;100790.57;1703686;82;21124;-71
2021/10/02 05:13:22;;;;;;;44.40;20.50;;;;;;;2.55;97.80;100791.50;1695616;83;21017;-70
2021/10/02 05:15:49;;;;;;;37.83;20.65;;;;;;;2.68;97.92;100794.53;1694249;83;20956;-71
2021/10/02 05:18:15;;;;;;;40.63;22.00;;;;;;;2.83;98.14;100794.91;1713572;82;21539;-70
2021/10/02 05:20:42;;;;;;;40.45;22.05;;;;;;;2.99;98.45;100790.11;1699255;83;21115;-70
2021/10/02 05:23:09;;;;;;;40.55;20.15;;;;;;;3.17;98.87;100790.52;1697842;83;21008;-70
2021/10/02 05:25:36;;;;;;;44.40;22.30;;;;;;;3.36;99.08;100789.03;1736484;81;20937;-71
2021/10/02 05:28:04;;;;;;;41.33;23.10;;;;;;;3.55;99.33;100787.80;1756709;80;21424;-69
2021/10/02 05:30:31;;;;;;;44.40;22.30;;;;;;;3.96;100.00;100780.77;1729308;80;21154;-70
2021/10/02 05:32:58;;;;;;;39.98;21.82;;;;;;;3.96;100.00;100780.77;1716906;82;20945;-70
2021/10/02 05:35:25;;;;;;;36.93;20.37;;;;;;;4.17;100.00;100790.64;1742360;80;21022;-70
2021/10/02 05:37:52;;;;;;;40.15;20.75;;;;;;;4.36;99.73;100779.86;1718299;82;20987;-70
2021/10/02 05:40:19;;;;;;;37.53;20.20;;;;;;;4.60;99.99;100784.09;1730804;82;20980;-71
2021/10/02 05:42:46;;;;;;;35.83;19.77;;;;;;;4.83;99.65;100782.26;1669232;83;21216;-70
2021/10/02 05:45:12;;;;;;;33.92;18.25;;;;;;;5.06;99.00;100782.62;1723359;82;20902;-70
2021/10/02 05:47:39;;;;;;;28.70;16.75;;;;;;;5.28;98.52;100786.19;1728504;81;20976;-72
2021/10/02 05:50:06;;;;;;;27.90;16.80;;;;;;;5.49;97.43;100784.03;1687136;83;21084;-70
2021/10/02 05:52:33;;;;;;;28.30;15.88;;;;;;;5.71;96.40;100783.23;1705734;82;21027;-74
2021/10/02 05:55:00;;;;;;;29.67;14.23;;;;;;;5.91;95.19;100778.03;1672053;83;21165;-74
2021/10/02 05:57:27;;;;;;;35.33;15.63;;;;;;;6.32;92.69;100781.20;1715241;82;20875;-75
2021/10/02 05:59:56;;;;;;;31.25;15.10;;;;;;;6.48;92.11;100783.78;1696224;83;20932;-71
2021/10/02 06:02:22;;;;;;;23.57;14.38;;;;;;;6.48;92.11;100783.78;1710645;82;20935;-72
2021/10/02 06:04:49;;;;;;;35.85;17.48;;;;;;;6.66;90.00;100786.69;1731157;82;20971;-71
2021/10/02 06:07:15;;;;;;;32.38;16.25;;;;;;;6.83;89.02;100790.11;1734909;81;21119;-70
2021/10/02 06:09:42;;;;;;;31.57;19.73;;;;;;;6.98;89.18;100786.64;1716887;82;21486;-75
2021/10/02 06:12:10;;;;;;;31.35;18.15;;;;;;;7.14;88.33;100782.94;1714884;81;20959;-72
2021/10/02 06:14:36;;;;;;;34.27;19.02;;;;;;;7.32;87.77;100791.80;1708665;82;20955;-70
2021/10/02 06:17:04;;;;;;;29.30;15.93;;;;;;;7.48;86.63;100790.80;1701041;81;20946;-73
2021/10/02 06:19:31;;;;;;;29.65;16.23;;;;;;;7.63;85.43;100784.02;1697015;83;21133;-72
2021/10/02 06:21:59;;;;;;;29.10;16.70;;;;;;;7.80;85.13;100790.11;1721893;82;21065;-73
2021/10/02 06:24:25;;;;;;;34.75;15.65;;;;;;;7.97;84.30;100790.45;1715157;82;20912;-72
2021/10/02 06:26:52;;;;;;;26.02;14.30;;;;;;;8.14;84.80;100791.02;1715691;83;20954;-74
2021/10/02 06:29:19;;;;;;;33.83;16.85;;;;;;;8.32;82.60;100789.16;1716562;82;21004;-73
2021/10/02 06:31:46;;;;;;;38.42;18.35;;;;;;;8.46;80.30;100784.02;1718398;82;21096;-73
2021/10/02 06:34:14;;;;;;;29.00;15.18;;;;;;;8.55;78.38;100795.52;1718823;81;21448;-72
2021/10/02 06:36:43;;;;;;;34.03;18.65;;;;;;;8.63;77.81;100791.98;1718394;81;21455;-73
2021/10/02 06:39:11;;;;;;;28.10;17.32;;;;;;;8.74;78.28;100794.97;1714992;82;21008;-73
2021/10/02 06:41:39;;;;;;;26.55;15.88;;;;;;;8.87;77.88;100797.16;1712774;82;20924;-73
2021/10/02 06:44:08;;;;;;;30.35;16.07;;;;;;;8.97;76.81;100797.16;1713325;83;21140;-72
2021/10/02 06:46:35;;;;;;;29.67;14.00;;;;;;;9.06;76.55;100792.77;1710823;82;20932;-72
2021/10/02 06:49:01;;;;;;;25.57;14.13;;;;;;;9.16;74.89;100793.31;1715222;82;20947;-73
2021/10/02 06:51:27;;;;;;;26.60;13.98;;;;;;;9.27;75.19;100798.47;1698761;83;20998;-73
2021/10/02 06:53:54;;;;;;;29.92;14.18;;;;;;;9.64;75.33;100803.33;1697575;82;21541;-72
2021/10/02 06:56:21;;;;;;;26.55;14.15;;;;;;;10.20;72.92;100799.81;1708599;82;21052;-73
2021/10/02 06:58:47;;;;;;;30.00;15.10;;;;;;;10.78;69.55;100797.21;1718791;82;21443;-72
2021/10/02 07:01:14;;;;;;;22.85;11.38;;;;;;;11.32;68.83;100800.28;1709706;82;20963;-72
2021/10/02 07:03:40;;;;;;;20.72;12.30;;;;;;;11.75;68.08;100800.61;1710105;83;20979;-73
2021/10/02 07:06:08;;;;;;;24.82;11.97;;;;;;;12.23;67.22;100793.69;1714498;82;21078;-72
2021/10/02 07:08:35;;;;;;;21.65;12.58;;;;;;;12.68;64.49;100791.38;1733523;80;21107;-71
2021/10/02 07:11:03;;;;;;;24.95;12.60;;;;;;;13.07;63.49;100791.80;1743617;80;20955;-71
2021/10/02 07:13:29;;;;;;;21.10;10.95;;;;;;;13.41;62.15;100797.55;1736204;81;21049;-73
2021/10/02 07:15:57;;;;;;;21.77;12.37;;;;;;;13.68;58.76;100797.59;1725912;82;21588;-72
2021/10/02 07:18:26;;;;;;;20.43;11.35;;;;;;;13.84;59.60;100798.92;1729186;82;20882;-72
2021/10/02 07:20:54;;;;;;;17.50;10.82;;;;;;;14.03;58.21;100791.88;1740677;82;21129;-73
2021/10/02 07:23:24;;;;;;;21.87;11.53;;;;;;;14.19;56.53;100788.23;1735013;82;20985;-73
2021/10/02 07:25:50;;;;;;;24.77;10.50;;;;;;;14.39;56.13;100793.86;1739625;82;21618;-71
2021/10/02 07:28:17;;;;;;;19.05;10.63;;;;;;;14.63;56.00;100791.64;1744946;80;20981;-72
2021/10/02 07:30:44;;;;;;;16.52;10.15;;;;;;;14.83;53.26;100787.02;1755225;80;20916;-72
2021/10/02 07:33:11;;;;;;;22.42;10.95;;;;;;;14.90;53.76;100789.34;1769910;80;21490;-71
2021/10/02 07:35:37;;;;;;;16.95;10.55;;;;;;;15.05;53.45;100789.49;1750801;80;21011;-73
2021/10/02 07:38:05;;;;;;;15.90;10.43;;;;;;;15.39;52.76;100781.97;1757226;80;21129;-73
2021/10/02 07:40:31;;;;;;;15.53;9.20;;;;;;;15.71;51.35;100785.78;1744340;80;20968;-72
2021/10/02 07:42:59;;;;;;;17.45;10.85;;;;;;;15.90;50.02;100784.13;1756133;80;21086;-73
2021/10/02 07:45:26;;;;;;;17.23;10.35;;;;;;;16.04;50.64;100782.06;1703883;80;21171;-73
2021/10/02 07:47:55;;;;;;;15.00;9.00;;;;;;;16.20;48.82;100785.16;1736847;80;21545;-74
2021/10/02 07:50:22;;;;;;;15.65;8.70;;;;;;;16.20;47.99;100779.62;1725382;81;21093;-73
2021/10/02 07:52:50;;;;;;;17.60;9.58;;;;;;;16.24;46.17;100775.63;1682815;83;21646;-72
2021/10/02 07:55:18;;;;;;;13.90;9.15;;;;;;;16.22;47.74;100779.30;1688058;83;21944;-72
2021/10/02 07:57:46;;;;;;;14.80;8.73;;;;;;;16.38;47.67;100776.30;1744242;81;21140;-72
2021/10/02 08:00:17;;;;;;;14.73;9.00;;;;;;;16.68;46.75;100775.38;1730418;81;21017;-72
2021/10/02 08:02:48;;;;;;;11.83;7.08;;;;;;;16.88;46.98;100776.63;1722825;80;21007;-73
2021/10/02 08:05:14;;;;;;;11.00;6.62;;;;;;;17.03;46.55;100770.58;1662068;84;21017;-73
2021/10/02 08:07:43;;;;;;;13.45;7.17;;;;;;;17.21;44.21;100767.77;1710932;82;21111;-73
2021/10/02 08:10:11;;;;;;;12.78;6.87;;;;;;;17.28;44.52;100770.27;1718763;82;21526;-70
2021/10/02 08:12:40;;;;;;;11.78;7.33;;;;;;;17.45;44.12;100770.77;1749138;80;20946;-71
2021/10/02 08:15:09;;;;;;;13.28;6.92;;;;;;;17.74;43.41;100768.64;1739408;80;21110;-73
2021/10/02 08:17:38;;;;;;;10.98;6.80;;;;;;;17.79;42.51;100767.88;1729145;81;20938;-70
2021/10/02 08:20:12;;;;;;;11.83;6.72;;;;;;;17.85;42.84;100764.34;1738128;81;20876;-71
2021/10/02 08:22:50;;;;;;;9.68;6.30;;;;;;;17.95;41.49;100767.27;1739419;82;21492;-72
2021/10/02 08:25:19;;;;;;;9.13;5.58;;;;;;;17.87;40.59;100768.16;1722033;80;21048;-73
2021/10/02 08:27:50;;;;;;;13.65;7.15;;;;;;;17.89;40.96;100763.09;1717525;81;20971;-71
2021/10/02 08:30:21;;;;;;;12.20;6.15;;;;;;;17.98;41.87;100765.22;1727927;81;21536;-71
2021/10/02 08:32:52;;;;;;;8.95;5.67;;;;;;;18.09;41.42;100762.28;1724958;81;21022;-72
2021/10/02 08:35:21;;;;;;;10.65;5.55;;;;;;;18.21;41.26;100767.12;1749194;80;22162;-71
2021/10/02 08:37:54;;;;;;;13.35;6.12;;;;;;;18.25;40.24;100764.72;1734844;82;20930;-71
2021/10/02 08:40:27;;;;;;;11.40;6.25;;;;;;;18.27;39.22;100762.98;1735401;81;20968;-71
2021/10/02 08:43:00;;;;;;;6.60;4.50;;;;;;;18.23;39.72;100762.85;1728244;81;20978;-74
2021/10/02 08:45:31;;;;;;;7.30;4.92;;;;;;;18.24;39.22;100756.72;1696009;82;20930;-73
2021/10/02 08:48:01;;;;;;;7.67;5.40;;;;;;;18.32;39.89;100758.63;1728709;81;21753;-73
2021/10/02 08:50:29;;;;;;;11.68;6.00;;;;;;;18.49;39.08;100755.10;1736101;81;21014;-73
2021/10/02 08:53:04;;;;;;;7.87;4.72;;;;;;;18.67;39.44;100746.06;1735329;81;20947;-72
2021/10/02 08:55:41;;;;;;;10.90;4.85;;;;;;;18.93;38.57;100750.00;1737074;81;21054;-72
2021/10/02 08:58:10;;;;;;;;;;;;;;;19.06;37.23;100748.07;1730899;81;21076;-73
2021/10/02 09:00:42;;;;;;;6.03;3.65;;;;;;;19.05;36.07;100745.05;1679105;83;20209;-72
2021/10/02 09:03:12;;;;;;;6.90;4.08;;;;;;;19.19;37.83;100741.34;1677226;82;21530;-73
2021/10/02 09:05:42;;;;;;;;;;;;;;;19.48;35.83;100745.11;1729571;81;21056;-74
2021/10/02 09:08:13;;;;;;;12.03;5.45;;;;;;;19.54;35.08;100739.00;1716467;81;20667;-74
2021/10/02 09:10:48;;;;;;;13.35;5.30;;;;;;;19.69;36.36;100746.64;1720634;81;21085;-74
2021/10/02 09:13:17;;;;;;;7.05;3.92;;;;;;;19.69;35.39;100740.25;1724806;81;21143;-73
2021/10/02 09:15:50;;;;;;;9.50;3.92;;;;;;;19.79;35.13;100742.00;1716772;82;20949;-74
2021/10/02 09:18:27;;;;;;;6.97;4.05;;;;;;;19.83;34.29;100737.94;1711040;82;21458;-73
2021/10/02 09:21:04;;;;;;;5.87;4.30;;;;;;;19.77;34.84;100742.92;1740438;82;21060;-70
2021/10/02 09:23:50;;;;;;;8.90;3.70;;;;;;;19.57;35.02;100741.67;1697910;83;21062;-71
2021/10/02 09:26:22;;;;;;;7.12;4.42;;;;;;;19.36;33.83;100731.98;1739654;81;21897;-70
2021/10/02 09:28:50;;;;;;;8.48;4.55;;;;;;;19.16;34.24;100737.86;1730957;82;20974;-71
2021/10/02 09:31:29;;;;;;;7.75;4.85;;;;;;;19.11;33.81;100731.13;1734826;82;20972;-71
2021/10/02 09:33:51;;;;;;;;;;;;;;;19.06;35.98;100721.63;1670321;85;21084;-71
2021/10/02 09:36:28;;;;;;;6.12;4.50;;;;;;;19.10;34.53;100726.14;1714883;82;20438;-71
2021/10/02 09:39:00;;;;;;;8.20;4.35;;;;;;;18.96;34.53;100718.70;1745726;82;21160;-72
2021/10/02 09:41:29;;;;;;;8.58;5.00;;;;;;;18.96;36.20;100715.92;1723964;81;21496;-71
2021/10/02 09:43:58;;;;;;;14.23;4.95;;;;;;;19.16;35.51;100715.59;1720642;81;21101;-70
2021/10/02 09:46:38;;;;;;;10.15;5.25;;;;;;;19.33;34.81;100717.36;1693328;82;21045;-71
2021/10/02 09:49:06;;;;;;;12.80;7.97;;;;;;;19.38;34.12;100713.78;1736051;81;21535;-71
2021/10/02 09:51:43;;;;;;;15.53;6.35;;;;;;;19.47;34.32;100713.67;1693840;83;21079;-71
2021/10/02 09:54:43;;;;;;;11.85;6.03;;;;;;;19.63;35.25;100708.25;1674187;84;21031;-71
2021/10/02 09:57:21;;;;;;;8.50;5.08;;;;;;;19.86;34.33;100714.13;1699772;83;20916;-72
2021/10/02 09:59:54;;;;;;;5.45;4.03;;;;;;;19.75;33.83;100709.03;1698612;83;20939;-69
2021/10/02 10:02:29;;;;;;;7.95;4.78;;;;;;;19.79;34.42;100713.33;1679340;83;21020;-69
2021/10/02 10:04:55;;;;;;;12.85;4.30;;;;;;;19.95;34.22;100707.85;1713775;83;21744;-71
2021/10/02 10:07:29;;;;;;;7.53;4.93;;;;;;;19.89;35.14;100689.75;1701482;83;20979;-72
2021/10/02 10:10:06;;;;;;;8.78;4.95;;;;;;;19.71;34.40;100696.96;1678965;83;21045;-72
2021/10/02 10:12:40;;;;;;;7.35;4.20;;;;;;;19.87;34.31;100708.79;1707154;83;20950;-71
2021/10/02 10:15:33;;;;;;;7.08;3.90;;;;;;;20.13;34.39;100702.25;1691895;83;20990;-72
2021/10/02 10:18:15;;;;;;;11.75;4.08;;;;;;;20.17;33.25;100698.17;1689147;83;21138;-70
2021/10/02 10:20:52;;;;;;;11.80;4.75;;;;;;;20.13;33.16;100688.31;1670677;83;21008;-70
2021/10/02 10:23:42;;;;;;;8.93;4.62;;;;;;;20.07;33.24;100687.73;1681799;82;21014;-71
2021/10/02 10:26:15;;;;;;;5.42;3.58;;;;;;;19.92;33.77;100683.47;1715748;82;20944;-71
2021/10/02 10:28:48;;;;;;;6.10;3.75;;;;;;;19.73;32.78;100683.50;1767125;80;20990;-71
2021/10/02 10:31:29;;;;;;;5.55;3.90;;;;;;;19.66;34.52;100679.09;1739184;80;20937;-72
2021/10/02 10:34:00;;;;;;;8.95;3.65;;;;;;;19.66;33.40;100678.28;1733575;81;20914;-72
2021/10/02 10:36:34;;;;;;;7.72;3.80;;;;;;;19.67;33.82;100679.31;1712772;82;21542;-71
2021/10/02 10:39:10;;;;;;;8.53;3.77;;;;;;;19.82;32.57;100674.20;1713587;81;21413;-72
2021/10/02 10:41:41;;;;;;;5.65;3.25;;;;;;;19.84;32.10;100673.27;1725099;81;21054;-71
2021/10/02 10:44:10;;;;;;;8.28;4.42;;;;;;;19.93;34.35;100669.77;1723879;81;21166;-72
2021/10/02 10:46:42;;;;;;;9.18;3.90;;;;;;;20.16;31.75;100659.73;1728655;82;20957;-73
2021/10/02 10:49:16;;;;;;;6.85;4.08;;;;;;;20.26;31.92;100658.39;1726909;81;20993;-72
2021/10/02 10:51:45;;;;;;;7.20;4.20;;;;;;;20.19;32.38;100660.41;1729145;81;21113;-71
2021/10/02 10:54:18;;;;;;;8.23;3.50;;;;;;;20.10;32.49;100661.14;1710125;81;21000;-72
2021/10/02 10:56:56;;;;;;;7.45;3.87;;;;;;;20.14;32.28;100648.70;1731641;81;20974;-73
2021/10/02 10:59:27;;;;;;;5.40;3.30;;;;;;;20.25;31.57;100649.21;1730320;81;21104;-72
2021/10/02 11:01:55;;;;;;;4.00;2.92;;;;;;;20.05;32.05;100648.84;1702861;81;20969;-71
2021/10/02 11:04:44;;;;;;;6.55;3.37;;;;;;;19.87;32.19;100648.88;1736048;81;21021;-72
2021/10/02 11:07:18;;;;;;;5.78;3.40;;;;;;;19.82;32.22;100654.70;1735377;82;20947;-72
2021/10/02 11:09:50;;;;;;;6.50;3.25;;;;;;;19.77;33.39;100652.96;1739147;81;20915;-72
2021/10/02 11:12:16;;;;;;;4.15;3.10;;;;;;;19.78;31.96;100642.05;1740659;80;21562;-72
2021/10/02 11:14:59;;;;;;;5.60;3.37;;;;;;;19.66;32.95;100645.66;1709233;83;20989;-71
2021/10/02 11:17:37;;;;;;;12.68;3.75;;;;;;;19.62;32.13;100644.77;1712213;83;21051;-72
2021/10/02 11:20:22;;;;;;;6.17;3.50;;;;;;;19.58;32.19;100629.11;1696007;82;21015;-71
2021/10/02 11:23:36;;;;;;;7.78;4.15;;;;;;;19.60;32.94;100638.73;1706420;83;21003;-71
2021/10/02 11:26:25;;;;;;;6.95;3.33;;;;;;;19.66;31.95;100642.06;1679919;83;20957;-71
2021/10/02 11:29:04;;;;;;;8.88;4.05;;;;;;;19.79;32.38;100633.92;1708180;83;20946;-71
2021/10/02 11:31:34;;;;;;;7.03;4.35;;;;;;;19.74;31.88;100636.37;1698114;80;21090;-71
2021/10/02 11:34:07;;;;;;;6.53;4.42;;;;;;;19.75;32.40;100622.67;1732475;80;20924;-69
2021/10/02 11:36:41;;;;;;;8.18;4.50;;;;;;;19.94;32.21;100625.41;1667037;83;21474;-72
2021/10/02 11:39:11;;;;;;;;;;;;;;;20.17;33.61;100622.91;1719736;82;20990;-75
2021/10/02 11:41:45;;;;;;;;;;;;;;;20.40;32.95;100616.42;1721573;82;20079;-71
2021/10/02 11:44:33;;;;;;;6.92;4.47;;;;;;;20.38;32.66;100616.55;1691055;83;20433;-72
2021/10/02 11:47:27;;;;;;;9.00;3.77;;;;;;;20.41;32.44;100615.25;1700250;83;21533;-71
2021/10/02 11:50:14;;;;;;;9.18;4.58;;;;;;;20.42;32.18;100611.88;1653431;85;22216;-71
2021/10/02 11:52:53;;;;;;;8.33;4.72;;;;;;;20.48;31.29;100615.22;1706837;82;21455;-71
2021/10/02 11:55:44;;;;;;;8.95;5.12;;;;;;;20.36;31.78;100611.30;1709137;82;20952;-72
2021/10/02 11:58:16;;;;;;;8.73;4.90;;;;;;;20.42;32.20;100607.70;1712793;82;20896;-73
2021/10/02 12:00:52;;;;;;;7.03;4.42;;;;;;;20.67;31.16;100606.98;1733077;82;21004;-73
2021/10/02 12:03:31;;;;;;;9.63;4.45;;;;;;;20.43;30.55;100603.16;1718790;82;21086;-73
2021/10/02 12:06:06;;;;;;;8.98;4.05;;;;;;;20.25;32.69;100603.21;1725128;81;21003;-68
2021/10/02 12:08:38;;;;;;;7.20;4.08;;;;;;;20.48;31.96;100599.88;1712428;82;20979;-73
2021/10/02 12:11:12;;;;;;;5.40;2.98;;;;;;;20.55;30.91;100600.08;1729484;82;21443;-72
2021/10/02 12:13:51;;;;;;;6.05;3.55;;;;;;;20.44;30.52;100603.38;1733215;82;37193;-69
2021/10/02 12:16:30;;;;;;;4.85;3.37;;;;;;;20.52;31.52;100602.19;1725511;82;20976;-75
2021/10/02 12:19:20;;;;;;;6.35;3.83;;;;;;;20.62;30.33;100600.27;1728862;82;21047;-71
2021/10/02 12:21:55;;;;;;;10.20;4.40;;;;;;;20.55;30.39;100599.49;1719378;82;20978;-71
2021/10/02 12:24:31;;;;;;;7.58;3.25;;;;;;;20.69;30.44;100601.86;1734806;81;21040;-72
2021/10/02 12:27:08;;;;;;;5.35;3.50;;;;;;;20.74;29.60;100601.59;1725729;81;21018;-73
2021/10/02 12:29:41;;;;;;;5.92;3.40;;;;;;;20.65;29.03;100598.16;1714152;82;21542;-71
2021/10/02 12:32:12;;;;;;;5.70;3.77;;;;;;;20.51;30.73;100595.80;1673411;80;21087;-74